Jin Cheng Zhou 88 — BLFQ2 — position and weather

sailwx.info

Track history (hours):
 
Tides and Currents Weather Stations Pressure Air Temp Water Temp Dewpoint Dewpoint Depression Visibility Wind Speed Wind Dir Waves Ship Positions

Jin Cheng Zhou 88

Last reported at 2018-Jul-17 09:45 UTC. Time now 2018-Jul-22 04:32 UTC.
Position N 24°25' E 118°33'.

Length 159 m; draft 9.5 m.

Type: Cargo ship. MMSI: 412761670.

Date/timePositionNaut miles runAvg speedWind from/ knotsBaromVisibWave heightAir tempDewpointWater temp
2018-Jul-17 09:45N 24°25' E 118°33'1 5.9
2018-Jul-17 09:30N 24°24' E 118°32'6 6.0
2018-Jul-17 08:33N 24°20' E 118°27'1 6.5
2018-Jul-17 08:20N 24°20' E 118°26'9 6.6
2018-Jul-17 06:58N 24°15' E 118°18'4 8.4
2018-Jul-17 06:29N 24°13' E 118°14'5 6.2
2018-Jul-17 05:42N 24°11' E 118°09'38 8.7
2018-Jul-17 01:21N 23°43' E 117°41'8 8.6
2018-Jul-17 00:22N 23°38' E 117°34'7 7.2
2018-Jul-16 23:21N 23°33' E 117°28'2 6.7
2018-Jul-16 23:00N 23°32' E 117°25'3 6.3
2018-Jul-16 22:30N 23°30' E 117°23'  
Track history (hours):
 
Tides and Currents Weather Stations Pressure Air Temp Water Temp Dewpoint Dewpoint Depression Visibility Wind Speed Wind Dir Waves Ship Positions

Jin Cheng Zhou 88

Last reported at 2018-Jul-17 09:45 UTC. Time now 2018-Jul-22 04:32 UTC.
Position N 24°25' E 118°33'.

Length 159 m; draft 9.5 m.

Type: Cargo ship. MMSI: 412761670.

Date/timePositionNaut miles runAvg speedWind from/ knotsBaromVisibWave heightAir tempDewpointWater temp
2018-Jul-17 09:45N 24°25' E 118°33'1 5.9
2018-Jul-17 09:30N 24°24' E 118°32'6 6.0
2018-Jul-17 08:33N 24°20' E 118°27'1 6.5
2018-Jul-17 08:20N 24°20' E 118°26'9 6.6
2018-Jul-17 06:58N 24°15' E 118°18'4 8.4
2018-Jul-17 06:29N 24°13' E 118°14'5 6.2
2018-Jul-17 05:42N 24°11' E 118°09'38 8.7
2018-Jul-17 01:21N 23°43' E 117°41'8 8.6
2018-Jul-17 00:22N 23°38' E 117°34'7 7.2
2018-Jul-16 23:21N 23°33' E 117°28'2 6.7
2018-Jul-16 23:00N 23°32' E 117°25'3 6.3
2018-Jul-16 22:30N 23°30' E 117°23'  

Dump ship's entire track history